CheckWX is a tool to help pilots better visualize weather data.  It is not intended as a substitute for an official pre-flight weather briefing.

13:46:52 UTC

LDZA TAF
Zagreb Airport
Zagreb, Croatia
TAF LDZA 151125Z 1512/1612 VRB02KT CAVOK TX26/1513Z TN11/1604Z PROB30 TEMPO 1603/1606 1500 BCFG

Sep-15@
12:00 UTC

Sep-15 @ 12:00 UTC

Sep-16@
12:00 UTC

Sep-16 @ 12:00 UTC

TAF LDZA 151125Z 1512/1612 VRB02KT CAVOK TX26/1513Z TN11/1604Z
Wind
  • Variable at 2 KTS
Cloud Levels
  • No significant clouds

Sep-16@
03:00 UTC

Sep-16 @ 03:00 UTC

Sep-16@
06:00 UTC

Sep-16 @ 06:00 UTC

PROB30 TEMPO 1603/1606 1500 BCFG

Temporary - 30% Likelihood

Temporary - 30% Likelihood during this time.

Conditions
Patches of Fog